createdAt,value
2018-09-09T00:01:37.159Z,12.10
2018-09-09T00:04:05.383Z,12.10
2018-09-09T00:06:33.576Z,12.10
2018-09-09T00:09:01.984Z,12.10
2018-09-09T00:11:30.211Z,12.10
2018-09-09T00:13:58.408Z,12.00
2018-09-09T00:16:26.631Z,12.00
2018-09-09T00:18:54.836Z,12.00
2018-09-09T00:21:23.027Z,12.00
2018-09-09T00:23:51.431Z,12.00
2018-09-09T00:26:19.684Z,12.00
2018-09-09T00:28:47.831Z,11.90
2018-09-09T00:31:16.053Z,11.90
2018-09-09T00:33:44.263Z,11.90
2018-09-09T00:36:12.493Z,11.90
2018-09-09T00:38:40.693Z,11.90
2018-09-09T00:41:08.920Z,11.80
2018-09-09T00:43:37.120Z,11.80
2018-09-09T00:46:05.364Z,11.80
2018-09-09T00:48:33.547Z,11.70
2018-09-09T00:51:07.095Z,11.70
2018-09-09T00:53:40.718Z,11.70
2018-09-09T00:56:08.932Z,11.70
2018-09-09T00:58:37.131Z,11.60
2018-09-09T01:01:10.937Z,11.60
2018-09-09T01:03:39.441Z,11.50
2018-09-09T01:06:07.896Z,11.40
2018-09-09T01:08:36.110Z,11.40
2018-09-09T01:11:04.384Z,11.30
2018-09-09T01:13:32.567Z,11.20
2018-09-09T01:16:00.779Z,11.20
2018-09-09T01:18:28.963Z,11.10
2018-09-09T01:20:57.175Z,11.00
2018-09-09T01:23:25.365Z,11.00
2018-09-09T01:25:53.575Z,10.90
2018-09-09T01:28:21.776Z,10.80
2018-09-09T01:30:49.995Z,10.80
2018-09-09T01:33:18.231Z,10.70
2018-09-09T01:35:46.462Z,10.70
2018-09-09T01:38:14.647Z,10.60
2018-09-09T01:40:42.835Z,10.60
2018-09-09T01:43:11.039Z,10.60
2018-09-09T01:45:39.283Z,10.50
2018-09-09T01:48:07.487Z,10.50
2018-09-09T01:50:35.692Z,10.50
2018-09-09T01:53:04.230Z,10.50
2018-09-09T01:55:32.591Z,10.50
2018-09-09T01:58:00.803Z,10.50
2018-09-09T02:00:29.012Z,10.50
2018-09-09T02:02:57.211Z,10.40
2018-09-09T02:05:25.429Z,10.50
2018-09-09T02:07:53.687Z,10.40
2018-09-09T02:10:21.884Z,10.40
2018-09-09T02:12:50.115Z,10.40
2018-09-09T02:15:18.324Z,10.40
2018-09-09T02:17:46.540Z,10.40
2018-09-09T02:20:14.759Z,10.40
2018-09-09T02:22:42.959Z,10.40
2018-09-09T02:25:11.179Z,10.40
2018-09-09T02:27:39.391Z,10.40
2018-09-09T02:30:07.687Z,10.40
2018-09-09T02:32:35.891Z,10.40
2018-09-09T02:35:04.103Z,10.40
2018-09-09T02:37:32.323Z,10.40
2018-09-09T02:40:00.543Z,10.40
2018-09-09T02:42:28.765Z,10.40
2018-09-09T02:44:56.993Z,10.50
2018-09-09T02:47:25.188Z,10.40
2018-09-09T02:49:53.396Z,10.40
2018-09-09T02:52:21.596Z,10.50
2018-09-09T02:54:49.824Z,10.40
2018-09-09T02:57:18.051Z,10.50
2018-09-09T02:59:46.245Z,10.40
2018-09-09T03:02:14.479Z,10.40
2018-09-09T03:04:42.708Z,10.40
2018-09-09T03:07:10.935Z,10.40
2018-09-09T03:09:39.159Z,10.40
2018-09-09T03:12:07.363Z,10.40
2018-09-09T03:14:35.571Z,10.40
2018-09-09T03:17:03.834Z,10.40
2018-09-09T03:19:32.349Z,10.40
2018-09-09T03:22:00.819Z,10.40
2018-09-09T03:24:29.011Z,10.40
2018-09-09T03:26:57.214Z,10.40
2018-09-09T03:29:25.451Z,10.40
2018-09-09T03:31:54.517Z,10.40
2018-09-09T03:34:22.715Z,10.40
2018-09-09T03:36:50.959Z,10.40
2018-09-09T03:39:19.166Z,10.40
2018-09-09T03:41:47.376Z,10.40
2018-09-09T03:44:15.568Z,10.50
2018-09-09T03:46:43.805Z,10.50
2018-09-09T03:49:12.024Z,10.40
2018-09-09T03:51:40.219Z,10.50
2018-09-09T03:54:08.452Z,10.50
2018-09-09T03:56:38.404Z,10.50
2018-09-09T03:59:06.677Z,10.50
2018-09-09T04:01:34.922Z,10.50
2018-09-09T04:04:03.223Z,10.50
2018-09-09T04:06:31.412Z,10.50
2018-09-09T04:08:59.626Z,10.50
2018-09-09T04:11:27.820Z,10.50
2018-09-09T04:13:56.070Z,10.40
2018-09-09T04:16:24.287Z,10.40
2018-09-09T04:18:52.512Z,10.40
2018-09-09T04:21:20.738Z,10.40
2018-09-09T04:23:49.040Z,10.40
2018-09-09T04:26:17.203Z,10.40
2018-09-09T04:28:45.409Z,10.40
2018-09-09T04:31:13.638Z,10.40
2018-09-09T04:33:41.863Z,10.40
2018-09-09T04:36:10.143Z,10.40
2018-09-09T04:38:38.386Z,10.40
2018-09-09T04:41:06.629Z,10.30
2018-09-09T04:43:34.819Z,10.30
2018-09-09T04:46:03.155Z,10.30
2018-09-09T04:48:31.360Z,10.30
2018-09-09T04:50:59.559Z,10.30
2018-09-09T04:53:27.767Z,10.30
2018-09-09T04:55:55.983Z,10.30
2018-09-09T04:58:24.192Z,10.30
2018-09-09T05:00:52.427Z,10.30
2018-09-09T05:03:20.634Z,10.30
2018-09-09T05:05:48.819Z,10.30
2018-09-09T05:08:17.021Z,10.30
2018-09-09T05:10:45.207Z,10.40
2018-09-09T05:13:13.415Z,10.40
2018-09-09T05:15:41.651Z,10.40
2018-09-09T05:18:09.847Z,10.40
2018-09-09T05:20:38.030Z,10.40
2018-09-09T05:23:06.281Z,10.50
2018-09-09T05:25:34.491Z,10.50
2018-09-09T05:28:02.727Z,10.50
2018-09-09T05:30:30.940Z,10.60
2018-09-09T05:32:59.166Z,10.60
2018-09-09T05:35:27.379Z,10.60
2018-09-09T05:37:55.582Z,10.70
2018-09-09T05:40:23.775Z,10.70
2018-09-09T05:42:52.004Z,10.70
2018-09-09T05:45:20.183Z,10.80
2018-09-09T05:47:48.363Z,10.80
2018-09-09T05:50:17.525Z,10.80
2018-09-09T05:52:45.691Z,10.90
2018-09-09T05:55:13.892Z,10.90
2018-09-09T05:57:42.236Z,11.00
2018-09-09T06:00:10.368Z,11.00
2018-09-09T06:02:38.588Z,11.10
2018-09-09T06:05:06.832Z,11.10
2018-09-09T06:07:35.055Z,11.20
2018-09-09T06:10:03.250Z,11.30
2018-09-09T06:12:31.435Z,11.30
2018-09-09T06:14:59.671Z,11.40
2018-09-09T06:17:27.875Z,11.40
2018-09-09T06:19:56.103Z,11.50
2018-09-09T06:22:24.308Z,11.60
2018-09-09T06:24:52.523Z,11.70
2018-09-09T06:27:20.732Z,11.70
2018-09-09T06:29:48.959Z,11.80
2018-09-09T06:32:17.227Z,11.90
2018-09-09T06:34:45.428Z,12.00
2018-09-09T06:37:13.619Z,12.10
2018-09-09T06:39:41.851Z,12.20
2018-09-09T06:42:10.064Z,12.20
2018-09-09T06:44:38.280Z,12.30
2018-09-09T06:47:06.510Z,12.40
2018-09-09T06:49:34.743Z,12.50
2018-09-09T06:52:03.010Z,12.50
2018-09-09T06:54:31.207Z,12.60
2018-09-09T06:56:59.423Z,12.70
2018-09-09T06:59:27.630Z,12.80
2018-09-09T07:01:55.843Z,12.90
2018-09-09T07:04:24.085Z,12.90
2018-09-09T07:06:52.326Z,13.00
2018-09-09T07:09:20.544Z,13.10
2018-09-09T07:11:48.942Z,13.20
2018-09-09T07:14:17.007Z,13.30
2018-09-09T07:16:45.204Z,13.40
2018-09-09T07:19:13.457Z,13.50
2018-09-09T07:21:41.650Z,13.60
2018-09-09T07:24:09.844Z,13.80
2018-09-09T07:26:38.064Z,13.90
2018-09-09T07:29:06.290Z,14.00
2018-09-09T07:31:34.467Z,14.10
2018-09-09T07:34:02.663Z,14.20
2018-09-09T07:36:30.879Z,14.30
2018-09-09T07:38:59.091Z,14.50
2018-09-09T07:41:27.324Z,14.60
2018-09-09T07:43:55.535Z,14.90
2018-09-09T07:46:23.792Z,15.20
2018-09-09T07:48:51.951Z,15.60
2018-09-09T07:51:20.175Z,16.00
2018-09-09T07:53:48.391Z,16.40
2018-09-09T07:56:16.663Z,16.60
2018-09-09T07:58:44.903Z,16.80
2018-09-09T08:01:13.198Z,17.00
2018-09-09T08:03:41.395Z,17.30
2018-09-09T08:06:09.583Z,17.40
2018-09-09T08:08:37.787Z,17.60
2018-09-09T08:11:06.026Z,17.80
2018-09-09T08:13:34.219Z,18.00
2018-09-09T08:16:02.460Z,18.30
2018-09-09T08:18:30.686Z,18.50
2018-09-09T08:20:58.859Z,18.70
2018-09-09T08:23:27.101Z,18.80
2018-09-09T08:25:55.251Z,19.10
2018-09-09T08:28:23.650Z,19.40
2018-09-09T08:30:52.631Z,19.50
2018-09-09T08:33:20.944Z,19.70
2018-09-09T08:35:50.143Z,19.80
2018-09-09T08:38:18.323Z,20.00
2018-09-09T08:40:46.519Z,20.30
2018-09-09T08:43:14.699Z,20.50
2018-09-09T08:45:42.916Z,20.80
2018-09-09T08:48:11.132Z,21.00
2018-09-09T08:50:39.378Z,21.10
2018-09-09T08:53:07.559Z,21.20
2018-09-09T08:55:35.755Z,21.30
2018-09-09T08:58:03.955Z,21.40
2018-09-09T09:00:32.159Z,21.60
2018-09-09T09:03:01.158Z,21.70
2018-09-09T09:05:29.374Z,21.80
2018-09-09T09:07:57.615Z,22.00
2018-09-09T09:10:25.819Z,22.10
2018-09-09T09:12:54.026Z,22.20
2018-09-09T09:15:22.852Z,22.30
2018-09-09T09:17:51.043Z,22.30
2018-09-09T09:20:19.298Z,22.40
2018-09-09T09:22:47.479Z,22.50
2018-09-09T09:25:15.695Z,22.50
2018-09-09T09:27:43.881Z,22.70
2018-09-09T09:30:12.163Z,22.80
2018-09-09T09:32:44.519Z,23.10
2018-09-09T09:35:12.836Z,23.30
2018-09-09T09:37:41.096Z,23.50
2018-09-09T09:40:09.327Z,23.90
2018-09-09T09:42:37.598Z,24.10
2018-09-09T09:45:05.860Z,24.30
2018-09-09T09:47:34.724Z,24.50
2018-09-09T09:50:03.963Z,25.00
2018-09-09T09:52:32.160Z,25.50
2018-09-09T09:55:00.404Z,25.80
2018-09-09T09:57:28.532Z,26.10
2018-09-09T09:59:56.719Z,26.20
2018-09-09T10:02:24.932Z,26.40
2018-09-09T10:04:53.127Z,26.70
2018-09-09T10:07:21.325Z,26.80
2018-09-09T10:09:49.591Z,26.60
2018-09-09T10:12:17.819Z,26.40
2018-09-09T10:14:46.017Z,26.50
2018-09-09T10:17:14.276Z,26.90
2018-09-09T10:19:42.487Z,26.90
2018-09-09T10:22:10.842Z,27.10
2018-09-09T10:24:39.047Z,27.00
2018-09-09T10:27:07.263Z,27.20
2018-09-09T10:29:35.466Z,27.20
2018-09-09T10:32:03.755Z,27.10
2018-09-09T10:34:31.943Z,27.10
2018-09-09T10:37:00.135Z,27.50
2018-09-09T10:39:28.334Z,27.60
2018-09-09T10:41:56.542Z,28.00
2018-09-09T10:44:24.752Z,28.20
2018-09-09T10:46:53.052Z,28.50
2018-09-09T10:49:21.156Z,28.60
2018-09-09T10:51:49.386Z,28.70
2018-09-09T10:54:17.575Z,28.60
2018-09-09T10:56:45.780Z,28.80
2018-09-09T10:59:13.998Z,29.10
2018-09-09T11:01:42.203Z,29.30
2018-09-09T11:04:10.406Z,29.30
2018-09-09T11:06:38.884Z,29.60
2018-09-09T11:09:08.230Z,29.80
2018-09-09T11:11:36.450Z,30.00
2018-09-09T11:14:04.719Z,30.20
2018-09-09T11:16:32.908Z,30.50
2018-09-09T11:19:01.113Z,30.30
2018-09-09T11:21:29.303Z,30.50
2018-09-09T11:23:57.576Z,30.70
2018-09-09T11:26:26.671Z,30.90
2018-09-09T11:28:54.855Z,31.10
2018-09-09T11:31:23.054Z,31.30
2018-09-09T11:33:51.247Z,31.50
2018-09-09T11:36:19.469Z,31.50
2018-09-09T11:38:47.627Z,31.30
2018-09-09T11:41:15.856Z,31.30
2018-09-09T11:43:44.037Z,31.30
2018-09-09T11:46:12.672Z,31.10
2018-09-09T11:48:40.897Z,31.20
2018-09-09T11:51:09.092Z,31.10
2018-09-09T11:53:37.309Z,31.40
2018-09-09T11:56:05.768Z,31.60
2018-09-09T11:58:33.991Z,31.90
2018-09-09T12:01:03.807Z,32.20
2018-09-09T12:03:32.023Z,32.50
2018-09-09T12:06:00.207Z,32.80
2018-09-09T12:08:29.418Z,32.60
2018-09-09T12:10:57.624Z,32.70
2018-09-09T12:13:25.832Z,32.50
2018-09-09T12:15:54.027Z,32.80
2018-09-09T12:18:22.245Z,33.20
2018-09-09T12:20:50.471Z,33.60
2018-09-09T12:23:18.691Z,34.00
2018-09-09T12:25:46.920Z,34.40
2018-09-09T12:28:15.143Z,34.80
2018-09-09T12:30:43.330Z,34.80
2018-09-09T12:33:11.543Z,34.80
2018-09-09T12:35:40.242Z,34.70
2018-09-09T12:38:08.432Z,34.50
2018-09-09T12:40:36.598Z,34.30
2018-09-09T12:43:10.248Z,34.20
2018-09-09T12:45:43.839Z,34.10
2018-09-09T12:48:17.427Z,34.10
2018-09-09T12:50:45.627Z,34.10
2018-09-09T12:53:13.823Z,34.00
2018-09-09T12:55:42.004Z,34.00
2018-09-09T12:58:10.210Z,34.00
2018-09-09T13:00:38.421Z,33.80
2018-09-09T13:03:06.667Z,33.60
2018-09-09T13:05:34.867Z,33.20
2018-09-09T13:08:03.092Z,33.10
2018-09-09T13:10:31.285Z,33.00
2018-09-09T13:13:04.755Z,33.10
2018-09-09T13:15:32.984Z,33.20
2018-09-09T13:18:01.225Z,33.20
2018-09-09T13:20:29.426Z,33.40
2018-09-09T13:22:57.611Z,33.40
2018-09-09T13:25:26.640Z,33.30
2018-09-09T13:27:54.820Z,33.40
2018-09-09T13:30:23.171Z,33.50
2018-09-09T13:32:51.401Z,33.50
2018-09-09T13:35:19.596Z,33.50
2018-09-09T13:37:47.791Z,33.50
2018-09-09T13:40:16.004Z,33.80
2018-09-09T13:42:44.219Z,33.80
2018-09-09T13:45:12.416Z,33.70
2018-09-09T13:47:40.641Z,33.40
2018-09-09T13:50:08.791Z,33.10
2018-09-09T13:52:36.992Z,32.90
2018-09-09T13:55:06.047Z,32.70
2018-09-09T13:57:34.263Z,32.50
2018-09-09T14:00:02.551Z,32.10
2018-09-09T14:02:30.755Z,31.90
2018-09-09T14:04:58.959Z,31.70
2018-09-09T14:07:27.155Z,31.50
2018-09-09T14:09:55.347Z,31.40
2018-09-09T14:12:23.534Z,31.40
2018-09-09T14:14:51.734Z,31.30
2018-09-09T14:17:19.919Z,31.40
2018-09-09T14:19:48.118Z,31.20
2018-09-09T14:22:16.354Z,31.10
2018-09-09T14:24:44.603Z,31.10
2018-09-09T14:27:12.792Z,30.90
2018-09-09T14:29:40.996Z,30.30
2018-09-09T14:32:09.204Z,29.90
2018-09-09T14:34:37.389Z,29.80
2018-09-09T14:37:05.685Z,29.80
2018-09-09T14:39:33.888Z,29.80
2018-09-09T14:42:02.091Z,29.40
2018-09-09T14:44:30.312Z,29.50
2018-09-09T14:46:58.504Z,29.60
2018-09-09T14:49:26.711Z,29.70
2018-09-09T14:51:54.923Z,29.60
2018-09-09T14:54:23.189Z,29.80
2018-09-09T14:56:51.415Z,30.00
2018-09-09T14:59:19.922Z,29.90
2018-09-09T15:01:48.405Z,30.10
2018-09-09T15:04:16.768Z,30.30
2018-09-09T15:06:45.137Z,30.30
2018-09-09T15:09:13.459Z,30.40
2018-09-09T15:11:41.998Z,30.30
2018-09-09T15:14:10.827Z,30.30
2018-09-09T15:16:39.657Z,30.30
2018-09-09T15:19:07.974Z,30.00
2018-09-09T15:21:36.161Z,29.70
2018-09-09T15:24:04.364Z,29.70
2018-09-09T15:26:32.559Z,29.60
2018-09-09T15:29:00.757Z,29.50
2018-09-09T15:31:28.935Z,29.40
2018-09-09T15:33:57.134Z,29.30
2018-09-09T15:36:25.308Z,29.30
2018-09-09T15:38:53.520Z,29.20
2018-09-09T15:41:21.709Z,29.10
2018-09-09T15:43:49.938Z,29.00
2018-09-09T15:46:18.120Z,29.00
2018-09-09T15:48:46.406Z,28.90
2018-09-09T15:51:14.606Z,28.80
2018-09-09T15:53:42.826Z,28.60
2018-09-09T15:56:11.020Z,28.40
2018-09-09T15:58:39.236Z,28.20
2018-09-09T16:01:07.553Z,28.00
2018-09-09T16:03:35.916Z,27.90
2018-09-09T16:06:04.514Z,27.60
2018-09-09T16:08:32.747Z,27.40
2018-09-09T16:11:01.093Z,27.20
2018-09-09T16:13:29.403Z,27.00
2018-09-09T16:15:58.119Z,26.80
2018-09-09T16:18:26.365Z,26.60
2018-09-09T16:20:54.596Z,26.40
2018-09-09T16:23:22.784Z,26.20
2018-09-09T16:25:50.990Z,26.00
2018-09-09T16:28:19.176Z,25.80
2018-09-09T16:30:47.425Z,25.50
2018-09-09T16:33:15.580Z,25.30
2018-09-09T16:35:44.259Z,25.20
2018-09-09T16:38:12.471Z,25.00
2018-09-09T16:40:40.671Z,24.80
2018-09-09T16:43:08.879Z,24.70
2018-09-09T16:45:37.335Z,24.50
2018-09-09T16:48:05.634Z,24.40
2018-09-09T16:50:33.857Z,24.20
2018-09-09T16:53:02.060Z,24.00
2018-09-09T16:55:31.248Z,23.90
2018-09-09T16:57:59.460Z,23.70
2018-09-09T17:00:28.300Z,23.50
2018-09-09T17:02:57.531Z,23.40
2018-09-09T17:05:25.877Z,23.20
2018-09-09T17:07:54.095Z,23.00
2018-09-09T17:10:22.323Z,22.90
2018-09-09T17:12:50.545Z,22.70
2018-09-09T17:15:18.959Z,22.60
2018-09-09T17:17:47.167Z,22.40
2018-09-09T17:20:15.367Z,22.30
2018-09-09T17:22:43.546Z,22.10
2018-09-09T17:25:11.816Z,22.00
2018-09-09T17:27:40.028Z,21.80
2018-09-09T17:30:08.240Z,21.60
2018-09-09T17:32:36.443Z,21.50
2018-09-09T17:35:04.630Z,21.30
2018-09-09T17:37:32.815Z,21.10
2018-09-09T17:40:01.056Z,20.90
2018-09-09T17:42:29.243Z,20.80
2018-09-09T17:44:57.468Z,20.60
2018-09-09T17:47:25.651Z,20.40
2018-09-09T17:49:54.004Z,20.30
2018-09-09T17:52:22.191Z,20.10
2018-09-09T17:54:50.415Z,19.90
2018-09-09T17:57:18.595Z,19.80
2018-09-09T17:59:46.823Z,19.60
2018-09-09T18:02:15.059Z,19.50
2018-09-09T18:04:43.253Z,19.30
2018-09-09T18:07:11.539Z,19.20
2018-09-09T18:09:39.747Z,19.10
2018-09-09T18:12:07.995Z,19.00
2018-09-09T18:14:36.191Z,18.80
2018-09-09T18:17:04.403Z,18.70
2018-09-09T18:19:32.591Z,18.50
2018-09-09T18:22:00.823Z,18.40
2018-09-09T18:24:29.042Z,18.30
2018-09-09T18:26:57.234Z,18.20
2018-09-09T18:29:25.564Z,18.10
2018-09-09T18:31:53.719Z,17.90
2018-09-09T18:34:21.912Z,17.80
2018-09-09T18:36:50.154Z,17.70
2018-09-09T18:39:18.343Z,17.60
2018-09-09T18:41:47.131Z,17.50
2018-09-09T18:44:15.338Z,17.40
2018-09-09T18:46:43.647Z,17.30
2018-09-09T18:49:11.903Z,17.20
2018-09-09T18:51:40.107Z,17.10
2018-09-09T18:54:08.304Z,17.00
2018-09-09T18:56:37.177Z,16.90
2018-09-09T18:59:06.010Z,16.80
2018-09-09T19:01:34.207Z,16.70
2018-09-09T19:04:03.158Z,16.60
2018-09-09T19:06:31.399Z,16.50
2018-09-09T19:08:59.615Z,16.40
2018-09-09T19:11:27.828Z,16.30
2018-09-09T19:13:56.018Z,16.20
2018-09-09T19:16:24.224Z,16.10
2018-09-09T19:18:52.493Z,16.00
2018-09-09T19:21:20.809Z,16.00
2018-09-09T19:23:49.050Z,15.80
2018-09-09T19:26:17.555Z,15.80
2018-09-09T19:28:45.814Z,15.70
2018-09-09T19:31:13.984Z,15.60
2018-09-09T19:33:42.727Z,15.50
2018-09-09T19:36:10.947Z,15.50
2018-09-09T19:38:39.465Z,15.40
2018-09-09T19:41:07.676Z,15.30
2018-09-09T19:43:35.896Z,15.20
2018-09-09T19:46:04.115Z,15.10
2018-09-09T19:48:32.459Z,15.10
2018-09-09T19:51:00.739Z,15.00
2018-09-09T19:53:28.951Z,14.90
2018-09-09T19:55:57.704Z,14.80
2018-09-09T19:58:26.334Z,14.70
2018-09-09T20:00:54.447Z,14.70
2018-09-09T20:03:22.704Z,14.60
2018-09-09T20:05:50.988Z,14.50
2018-09-09T20:08:19.191Z,14.40
2018-09-09T20:10:47.385Z,14.30
2018-09-09T20:13:15.615Z,14.30
2018-09-09T20:15:43.901Z,14.20
2018-09-09T20:18:12.113Z,14.10
2018-09-09T20:20:40.503Z,14.00
2018-09-09T20:23:08.739Z,13.90
2018-09-09T20:25:37.232Z,13.90
2018-09-09T20:28:05.732Z,13.80
2018-09-09T20:30:34.082Z,13.70
2018-09-09T20:33:02.287Z,13.60
2018-09-09T20:35:30.506Z,13.60
2018-09-09T20:37:58.699Z,13.50
2018-09-09T20:40:26.919Z,13.50
2018-09-09T20:42:55.141Z,13.40
2018-09-09T20:45:23.345Z,13.40
2018-09-09T20:47:51.543Z,13.30
2018-09-09T20:50:19.759Z,13.20
2018-09-09T20:52:47.979Z,13.20
2018-09-09T20:55:16.188Z,13.10
2018-09-09T20:57:44.411Z,13.10
2018-09-09T21:00:12.714Z,13.00
2018-09-09T21:02:40.870Z,12.90
2018-09-09T21:05:09.353Z,12.90
2018-09-09T21:07:37.840Z,12.80
2018-09-09T21:10:06.345Z,12.70
2018-09-09T21:12:34.552Z,12.70
2018-09-09T21:15:04.451Z,12.60
2018-09-09T21:17:33.180Z,12.60
2018-09-09T21:20:01.406Z,12.50
2018-09-09T21:22:29.774Z,12.50
2018-09-09T21:24:57.995Z,12.40
2018-09-09T21:27:26.632Z,12.30
2018-09-09T21:29:54.967Z,12.30
2018-09-09T21:32:23.243Z,12.30
2018-09-09T21:34:51.479Z,12.20
2018-09-09T21:37:19.719Z,12.20
2018-09-09T21:39:47.972Z,12.10
2018-09-09T21:42:16.359Z,12.10
2018-09-09T21:44:44.573Z,12.00
2018-09-09T21:47:12.775Z,12.00
2018-09-09T21:49:40.963Z,11.90
2018-09-09T21:52:09.203Z,11.90
2018-09-09T21:54:37.439Z,11.80
2018-09-09T21:57:05.699Z,11.80
2018-09-09T21:59:34.359Z,11.70
2018-09-09T22:02:07.807Z,11.70
2018-09-09T22:04:36.391Z,11.60
2018-09-09T22:07:05.095Z,11.60
2018-09-09T22:09:33.362Z,11.50
2018-09-09T22:12:01.648Z,11.50
2018-09-09T22:14:29.855Z,11.40
2018-09-09T22:16:58.051Z,11.40
2018-09-09T22:19:26.273Z,11.40
2018-09-09T22:21:54.527Z,11.30
2018-09-09T22:24:22.779Z,11.30
2018-09-09T22:26:51.005Z,11.30
2018-09-09T22:29:19.187Z,11.20
2018-09-09T22:31:47.390Z,11.20
2018-09-09T22:34:16.071Z,11.20
2018-09-09T22:36:44.272Z,11.10
2018-09-09T22:39:12.785Z,11.10
2018-09-09T22:41:40.974Z,11.00
2018-09-09T22:44:11.059Z,11.00
2018-09-09T22:46:39.271Z,10.90
2018-09-09T22:49:07.736Z,10.90
2018-09-09T22:51:35.923Z,10.80
2018-09-09T22:54:04.317Z,10.80
2018-09-09T22:56:32.650Z,10.80
2018-09-09T22:59:01.038Z,10.70
2018-09-09T23:01:29.359Z,10.70
2018-09-09T23:03:57.575Z,10.60
2018-09-09T23:06:25.764Z,10.60
2018-09-09T23:08:53.971Z,10.60
2018-09-09T23:11:22.209Z,10.50
2018-09-09T23:13:50.631Z,10.50
2018-09-09T23:16:18.852Z,10.40
2018-09-09T23:18:47.007Z,10.40
2018-09-09T23:21:15.215Z,10.40
2018-09-09T23:23:43.431Z,10.30
2018-09-09T23:26:11.634Z,10.30
2018-09-09T23:28:39.832Z,10.30
2018-09-09T23:31:08.056Z,10.30
2018-09-09T23:33:36.245Z,10.20
2018-09-09T23:36:04.443Z,10.20
2018-09-09T23:38:32.639Z,10.20
2018-09-09T23:41:00.835Z,10.10
2018-09-09T23:43:29.051Z,10.10
2018-09-09T23:45:57.259Z,10.10
2018-09-09T23:48:25.472Z,10.00
2018-09-09T23:50:53.691Z,10.00
2018-09-09T23:53:21.883Z,9.90
2018-09-09T23:55:50.095Z,9.90
2018-09-09T23:58:18.307Z,9.90
